Tiempo atmosférico en la estación meteorológica de Valencia De Don Juan, León (788 m.)



Fecha
DESCASC
Temp. máxima en grados centígrados (hora)
DESCASC
Temp. mínima en grados centígrados (hora)
DESCASC
Temp. media en grados centígrados
DESCASC
Racha de viento máxima en m/sg (hora)
DESCASC
Velocidad máxima media en intervalos de 10 minutos(hora)
DESCASC
Precipitaciones diarias en mm
DESCASC
Precipitaciones de 00:00 a 06:00 en mm
DESCASC
Precipitaciones de 06:00 a 12:00 en mm
DESCASC
Precipitaciones de 12:00 a 18:00 en mm
DESCASC
Precipitaciones de 18:00 a 24:00 en mm
DESCASC
22-04-2018 20 (16:00) 8.3 (05:30) 14.2 8.89 (17:00) 6.11 (17:00) 0 0 0 0 0
21-04-2018 17.8 (18:00) 8.1 (06:50) 12.9 8.33 (18:10) 6.11 (00:10) 0 0 0 0 0
20-04-2018 21.3 (18:10) 10.1 (05:50) 15.7 13.06 (17:20) 9.44 (01:10) 0 0 0 0 0
19-04-2018 22.9 (18:00) 8.8 (00:00) 15.8 11.39 (23:40) 9.17 (23:30) 0 0 0 0 0
18-04-2018 23.4 (17:30) 5.3 (00:00) 14.3 6.67 (22:50) 5.83 (22:50) 0 0 0 0 0
17-04-2018 19.6 (18:20) 4 (00:00) 11.8 6.67 (16:50) 4.72 (03:00) 0 0 0 0 0
16-04-2018 -- (--) -- (--) -- -- (--) -- (--) -- -- -- 0 0
15-04-2018 -- (--) -- (--) -- -- (--) -- (--) -- -- -- -- --
14-04-2018 -- (--) -- (--) -- -- (--) -- (--) -- -- -- -- --
13-04-2018 -- (--) -- (--) -- -- (--) -- (--) -- 1 0 -- --
12-04-2018 9.8 (15:00) 2.1 (00:00) 6 8.06 (00:20) 5.83 (16:10) 1.2 0 0 0 1.2
11-04-2018 -- (--) -- (--) -- -- (--) -- (--) -- -- -- 0 0
10-04-2018 -- (--) -- (--) -- -- (--) -- (--) -- -- -- -- --
09-04-2018 -- (--) -- (--) -- -- (--) -- (--) -- -- -- -- --
08-04-2018 -- (--) -- (--) -- -- (--) -- (--) -- 0 0 -- --
07-04-2018 11.8 (19:20) 5.3 (00:00) 8.6 9.72 (20:20) 7.5 (22:00) 0.4 0.4 0 0 0
06-04-2018 18.3 (17:10) 5.1 (00:00) 11.7 15 (17:20) 10.83 (17:50) 0 0 0 0 0
05-04-2018 -- (--) -- (--) -- -- (--) -- (--) -- -- -- -- 0
04-04-2018 -- (--) -- (--) -- -- (--) -- (--) -- -- -- -- --
03-04-2018 -- (--) -- (--) -- -- (--) -- (--) -- 0.2 3.6 -- --
02-04-2018 13.4 (13:20) 8.6 (00:00) 11 16.11 (12:30) 11.94 (12:30) 0.2 0 0 0.2 0
01-04-2018 16 (18:30) 2.9 (00:00) 9.5 11.11 (17:50) 7.78 (17:50) 0 0 0 0 0
31-03-2018 11.5 (17:20) 0.3 (00:00) 5.9 14.44 (15:40) 9.72 (15:40) 0.2 0 0.2 0 0
30-03-2018 6.5 (15:20) -0.3 (00:00) 3.1 18.89 (19:30) 12.78 (17:00) 0.4 0 0 0 0.4
29-03-2018 11.6 (16:00) 1.8 (00:00) 6.7 16.11 (17:40) 11.11 (16:40) 0.6 0 0 0 0.6
28-03-2018 14.3 (14:50) 4.8 (00:00) 9.6 11.67 (18:00) 7.78 (18:00) 0 0 0 0 0
27-03-2018 18.3 (17:40) 4.7 (00:00) 11.5 12.22 (18:20) 8.61 (17:50) 0 0 0 0 0
26-03-2018 13 (17:30) -0.7 (-00:0) 6.2 9.72 (18:50) 7.22 (19:00) 0 0 0 0 0

Gráficas

Temp. máximas Temp. mínimas Temp. medias Precipitaciones Rachas de viento máximas Velocidades máximas media en intervalos de 10 minutos

Datos horarios

Fecha y hora oficial Temperatura (ºC) Velocidad del viento (km/h) Dirección del viento Racha (km/h) Dirección de racha Precipitación (mm) Presión (hPa) Tendencia (hPa) Humedad (%)
2018-04-24 23:00:00 17.5 9 Sur 13 Sudeste 0 -- -- 61
2018-04-24 22:00:00 18.2 12 Sur 14 Sur 0 -- -- 61
2018-04-24 21:00:00 20.9 9 Sudeste 15 Sudeste 0 -- -- 53
2018-04-24 20:00:00 23.6 12 Sudeste 15 Sur 0 -- -- 45
2018-04-24 19:00:00 25.1 10 Sur 16 Sur 0 -- -- 34
2018-04-24 18:00:00 25.3 9 Sur 16 Sudeste 0 -- -- 33
2018-04-24 17:00:00 25 9 Sudeste 14 Este 0 -- -- 35
2018-04-24 16:00:00 24.4 7 Sudeste 15 Este 0 -- -- 39
2018-04-24 15:00:00 23.4 5 Sudeste 14 Norte 0 -- -- 40
2018-04-24 14:00:00 21.9 7 Nordeste 12 Nordeste 0 -- -- 46
2018-04-24 13:00:00 20.5 7 Nordeste 18 Este 0 -- -- 51
2018-04-24 12:00:00 18.8 8 Nordeste 15 Nordeste 0 -- -- 60
2018-04-24 11:00:00 16.8 10 Nordeste 14 Nordeste 0 -- -- 64
2018-04-24 10:00:00 13.8 10 Nordeste 13 Nordeste 0 -- -- 73
2018-04-24 09:00:00 10.4 8 Nordeste 14 Nordeste 0 -- -- 84
2018-04-24 08:00:00 8.6 10 Nordeste 15 Nordeste 0 -- -- 87
2018-04-24 07:00:00 8.5 10 Norte 16 Norte 0 -- -- 87
2018-04-24 06:00:00 9.2 10 Norte 14 Norte 0 -- -- 87
2018-04-24 05:00:00 9.9 9 Norte 15 Nordeste 0 -- -- 87
2018-04-24 04:00:00 10.6 9 Nordeste 15 Nordeste 0 -- -- 86
2018-04-24 03:00:00 11.3 9 Norte 13 Norte 0 -- -- 84
2018-04-24 02:00:00 12.1 7 Norte 14 Nordeste 0 -- -- 82
2018-04-24 01:00:00 12.3 8 Nordeste 18 Nordeste 0 -- -- 82
2018-04-24 00:00:00 13.9 14 Nordeste 26 Este 0 -- -- 71
2018-04-23 23:00:00 15.3 19 Nordeste 22 Nordeste 0 -- -- 72
2018-04-23 22:00:00 17.6 13 Este 18 Nordeste 0 -- -- 68
2018-04-23 21:00:00 20.2 14 Sudeste 19 Sudeste 0 -- -- 56
2018-04-23 20:00:00 21.9 18 Sudeste 26 Sudeste 0 -- -- 43
2018-04-23 19:00:00 22.5 16 Sudeste 27 Sudeste 0 -- -- 45
2018-04-23 18:00:00 23 17 Sudeste 30 Sudeste 0 -- -- 43
2018-04-23 17:00:00 23.3 12 Sudeste 21 Este 0 -- -- 40
2018-04-23 16:00:00 22.6 10 Nordeste 18 Nordeste 0 -- -- 41
2018-04-23 15:00:00 21.7 8 Nordeste 20 Este 0 -- -- 44
2018-04-23 14:00:00 20.9 9 Sudeste 20 Nordeste 0 -- -- 50
2018-04-23 13:00:00 20.1 7 Sudeste 15 Nordeste 0 -- -- 50
2018-04-23 12:00:00 17.9 7 Nordeste 13 Nordeste 0 -- -- 62
2018-04-23 11:00:00 15 8 Norte 15 Norte 0 -- -- 70
2018-04-23 10:00:00 11.3 9 Norte 12 Norte 0 -- -- 83
2018-04-23 09:00:00 9 5 Norte 12 Noroeste 0 -- -- 88
2018-04-23 08:00:00 7.5 5 Este 12 Nordeste 0 -- -- 90
2018-04-23 07:00:00 7.7 10 Nordeste 16 Nordeste 0 -- -- 89
2018-04-23 06:00:00 7.9 14 Norte 18 Norte 0 -- -- 90
2018-04-23 05:00:00 8.4 8 Norte 21 Este 0 -- -- 88
2018-04-23 04:00:00 11.8 21 Este 23 Este 0 -- -- 82
2018-04-23 03:00:00 10.1 16 Este 24 Este 0 -- -- 86
2018-04-23 02:00:00 10.4 19 Este 26 Este 0 -- -- 84
2018-04-23 01:00:00 11 7 Norte 12 Este 0 -- -- 77
2018-04-23 00:00:00 13.1 11 Este 14 Este 0 -- -- 67
2018-04-22 23:00:00 13.4 8 Este 9 Este 0 -- -- 77
2018-04-22 22:00:00 14.1 4 Nordeste 10 Noroeste 0 -- -- 75
2018-04-22 21:00:00 15.1 6 Sur 13 Sur 0 -- -- 73
2018-04-22 20:00:00 16.7 9 Sur 15 Sudoeste 0 -- -- 65
2018-04-22 19:00:00 16.3 6 Sudoeste 22 Este 0 -- -- 67
2018-04-22 18:00:00 16.6 15 Sudeste 31 Sur 0 -- -- 61
2018-04-22 17:00:00 18.9 22 Sur 32 Sur 0 -- -- 52
2018-04-22 16:00:00 20 11 Sur 19 Sur 0 -- -- 49
2018-04-22 15:00:00 18.3 9 Sudeste 17 Este 0 -- -- 56
2018-04-22 14:00:00 16.6 11 Nordeste 16 Norte 0 -- -- 69
2018-04-22 13:00:00 14.5 5 Norte 12 Nordeste 0 -- -- 75
2018-04-22 12:00:00 12.9 8 Nordeste 10 Norte 0 -- -- 81
2018-04-22 11:00:00 11.7 3 Sudeste 9 Sur 0 -- -- 84
2018-04-22 10:00:00 10.6 4 Sudoeste 10 Sudeste 0 -- -- 83
2018-04-22 09:00:00 9.9 7 Este 13 Noroeste 0 -- -- 88
2018-04-22 08:00:00 8.9 6 Nordeste 9 Norte 0 -- -- 88
2018-04-22 07:00:00 9.1 7 Norte 18 Nordeste 0 -- -- 86
2018-04-22 06:00:00 8.8 11 Nordeste 13 Nordeste 0 -- -- 86
2018-04-22 05:00:00 8.4 9 Nordeste 11 Nordeste 0 -- -- 87
2018-04-22 04:00:00 9 9 Nordeste 11 Nordeste 0 -- -- 85
2018-04-22 03:00:00 9.5 6 Norte 8 Norte 0 -- -- 82
2018-04-22 02:00:00 10.3 5 Nordeste 8 Norte 0 -- -- 79
2018-04-22 01:00:00 11.5 5 Noroeste 12 Este 0 -- -- 74
2018-04-22 00:00:00 12.2 10 Este 11 Este 0 -- -- 74
2018-04-21 23:00:00 14.1 6 Sudeste 9 Sudeste 0 -- -- 65
2018-04-21 22:00:00 13.9 5 Sudeste 9 Sudeste 0 -- -- 67
2018-04-21 21:00:00 14.7 9 Sudeste 11 Sur 0 -- -- 65
2018-04-21 20:00:00 16.5 8 Sur 16 Sur 0 -- -- 53
2018-04-21 19:00:00 17 13 Sur 30 Sur 0 -- -- 56
2018-04-21 18:00:00 17.8 18 Sur 27 Sudoeste 0 -- -- 52
2018-04-21 17:00:00 16.8 19 Nordeste 23 Nordeste 0 -- -- 54
2018-04-21 16:00:00 16.7 16 Nordeste 22 Nordeste 0 -- -- 53
2018-04-21 15:00:00 15.9 13 Nordeste 20 Nordeste 0 -- -- 57
2018-04-21 14:00:00 15.5 10 Sudeste 15 Sudeste 0 -- -- 56
2018-04-21 13:00:00 15.7 10 Sudeste 18 Este 0 -- -- 54
2018-04-21 12:00:00 15.6 11 Sudeste 15 Sudeste 0 -- -- 56
2018-04-21 11:00:00 14.4 7 Sudeste 17 Este 0 -- -- 61
2018-04-21 10:00:00 13.3 12 Este 18 Nordeste 0 -- -- 67
2018-04-21 09:00:00 9.8 10 Norte 14 Nordeste 0 -- -- 83
2018-04-21 08:00:00 8.3 7 Nordeste 13 Este 0 -- -- 85
2018-04-21 07:00:00 8.2 6 Nordeste 13 Este 0 -- -- 84
2018-04-21 06:00:00 8.8 7 Nordeste 11 Nordeste 0 -- -- 85
2018-04-21 05:00:00 10.5 7 Nordeste 10 Nordeste 0 -- -- 75
2018-04-21 04:00:00 11.5 6 Sudeste 17 Sudeste 0 -- -- 70
2018-04-21 03:00:00 12 13 Sudeste 19 Sudeste 0 -- -- 68
2018-04-21 02:00:00 12.1 15 Sudeste 20 Sudeste 0 -- -- 70
2018-04-21 01:00:00 12.6 19 Sudeste 26 Este 0 -- -- 71
2018-04-21 00:00:00 13.8 24 Sudeste 30 Este 0 -- -- 66
2018-04-20 23:00:00 14.6 22 Sudeste 31 Sudeste 0 -- -- 65
2018-04-20 22:00:00 15.4 22 Sudeste 23 Sudeste 0 -- -- 60
2018-04-20 21:00:00 17.6 20 Este 26 Sudeste 0 -- -- 49
2018-04-20 20:00:00 19.7 21 Sudeste 36 Este 0 -- -- 41
2018-04-20 19:00:00 20.8 25 Sudeste 39 Este 0 -- -- 35
2018-04-20 18:00:00 21.1 27 Sudeste 47 Este 0 -- -- 34
2018-04-20 17:00:00 20.9 28 Sudeste 44 Este 0 -- -- 35
2018-04-20 16:00:00 20.8 26 Este 40 Este 0 -- -- 34
2018-04-20 15:00:00 19.9 28 Este 44 Este 0 -- -- 38
2018-04-20 14:00:00 18.9 23 Este 36 Este 0 -- -- 45
2018-04-20 13:00:00 18.3 23 Este 39 Sudeste 0 -- -- 49
2018-04-20 12:00:00 17 19 Este 26 Este 0 -- -- 54
2018-04-20 11:00:00 15.9 20 Este 29 Este 0 -- -- 61
2018-04-20 10:00:00 13.8 19 Este 26 Este 0 -- -- 67
2018-04-20 09:00:00 13 9 Este 19 Este 0 -- -- 74
2018-04-20 08:00:00 11.5 17 Este 28 Este 0 -- -- 75
2018-04-20 07:00:00 11.3 22 Este 27 Este 0 -- -- 76
2018-04-20 06:00:00 10.1 18 Este 27 Este 0 -- -- 81
2018-04-20 05:00:00 11.2 23 Este 29 Este 0 -- -- 76
2018-04-20 04:00:00 12.5 27 Este 36 Este 0 -- -- 70
2018-04-20 03:00:00 13.3 30 Este 39 Este 0 -- -- 68
2018-04-20 02:00:00 13.5 31 Este 42 Este 0 -- -- 68
2018-04-20 01:00:00 14.6 32 Este 40 Este 0 -- -- 64
2018-04-20 00:00:00 15.2 31 Este 41 Este 0 -- -- 62
2018-04-19 23:00:00 16.2 32 Este 39 Este 0 -- -- 58
2018-04-19 22:00:00 17.2 28 Este 36 Este 0 -- -- 52
2018-04-19 21:00:00 17.8 18 Este 22 Este 0 -- -- 49
2018-04-19 20:00:00 21.1 21 Este 31 Este 0 -- -- 39
2018-04-19 19:00:00 22.1 21 Este 36 Este 0 -- -- 34
2018-04-19 18:00:00 22.9 20 Sudeste 32 Este 0 -- -- 33
2018-04-19 17:00:00 22.5 23 Este 35 Sudeste 0 -- -- 35
2018-04-19 16:00:00 21.6 18 Este 30 Este 0 -- -- 38
2018-04-19 15:00:00 21.1 16 Este 28 Este 0 -- -- 36
2018-04-19 14:00:00 19.8 15 Este 26 Este 0 -- -- 42
2018-04-19 13:00:00 18.6 21 Este 30 Este 0 -- -- 45
2018-04-19 12:00:00 17 22 Este 30 Este 0 -- -- 53
2018-04-19 11:00:00 15.5 20 Este 26 Este 0 -- -- 57
2018-04-19 10:00:00 14.3 17 Este 24 Este 0 -- -- 59
2018-04-19 09:00:00 12 16 Este 21 Este 0 -- -- 72
2018-04-19 08:00:00 10 13 Este 18 Este 0 -- -- 75
2018-04-19 07:00:00 9.7 9 Este 11 Este 0 -- -- 81
2018-04-19 06:00:00 9 4 Norte 12 Este 0 -- -- 84
2018-04-19 05:00:00 9.8 5 Nordeste 10 Nordeste 0 -- -- 83
2018-04-19 04:00:00 10 4 Noroeste 17 Norte 0 -- -- 79
2018-04-19 03:00:00 12.5 3 Noroeste 23 Sudeste 0 -- -- 70
2018-04-19 02:00:00 13.7 3 Norte 13 Sudeste 0 -- -- 65
2018-04-19 01:00:00 15.2 3 Sudeste 16 Sudeste 0 -- -- 57
2018-04-19 00:00:00 15.3 16 Sudeste 21 Sudeste 0 -- -- 58
2018-04-18 23:00:00 15.4 19 Sudeste 24 Sudeste 0 -- -- 62
2018-04-18 22:00:00 17 17 Sudeste 21 Sudeste 0 -- -- 59
2018-04-18 21:00:00 19.3 15 Sudeste 22 Sur 0 -- -- 51
2018-04-18 20:00:00 21.8 18 Sur 23 Sudeste 0 -- -- 42
2018-04-18 19:00:00 22.9 13 Sudeste 21 Sudeste 0 -- -- 41
2018-04-18 18:00:00 23.2 6 Sudoeste 19 Sudoeste 0 -- -- 35
2018-04-18 17:00:00 23.1 10 Sur 19 Sudoeste 0 -- -- 33
2018-04-18 16:00:00 22.2 7 Oeste 18 Sur 0 -- -- 36
2018-04-18 15:00:00 21.4 8 Sudoeste 21 Sur 0 -- -- 38
2018-04-18 14:00:00 20.6 12 Sudeste 21 Sudeste 0 -- -- 39
2018-04-18 13:00:00 19.5 9 Sur 16 Sudeste 0 -- -- 47
2018-04-18 12:00:00 18 8 Sudeste 13 Sudeste 0 -- -- 50
2018-04-18 11:00:00 14.7 6 Nordeste 10 Nordeste 0 -- -- 69
2018-04-18 10:00:00 9.7 6 Norte 10 Norte 0 -- -- 79
2018-04-18 09:00:00 6.8 7 Norte 9 Norte 0 -- -- 87
2018-04-18 08:00:00 5.3 8 Norte 11 Norte 0 -- -- 89
2018-04-18 07:00:00 5.5 10 Norte 13 Norte 0 -- -- 89
2018-04-18 06:00:00 6.7 7 Norte 13 Norte 0 -- -- 86
2018-04-18 05:00:00 6.8 9 Nordeste 12 Nordeste 0 -- -- 87
2018-04-18 04:00:00 7.5 10 Nordeste 12 Nordeste 0 -- -- 88
2018-04-18 03:00:00 7.9 6 Norte 8 Norte 0 -- -- 85
2018-04-18 02:00:00 10.5 4 Noroeste 9 Sudeste 0 -- -- 75
2018-04-18 01:00:00 12.2 2 Oeste 17 Sudeste 0 -- -- 69
2018-04-18 00:00:00 12.3 16 Sudeste 17 Sudeste 0 -- -- 70
2018-04-17 23:00:00 12.7 17 Sudeste 18 Sudeste 0 -- -- 69
2018-04-17 22:00:00 13.5 16 Sudeste 17 Sudeste 0 -- -- 63
2018-04-17 21:00:00 15.9 12 Sur 21 Sur 0 -- -- 56
2018-04-17 20:00:00 18.6 15 Sur 21 Sur 0 -- -- 46
2018-04-17 19:00:00 19.5 14 Sur 20 Sur 0 -- -- 40
2018-04-17 18:00:00 19.3 8 Sur 21 Sur 0 -- -- 39
2018-04-17 17:00:00 19 9 Sur 24 Sur 0 -- -- 41
2018-04-17 16:00:00 18.5 11 Sur 21 Sur 0 -- -- 41
2018-04-17 15:00:00 17 12 Sudoeste 20 Sudoeste 0 -- -- 47
2018-04-17 14:00:00 15.9 11 Sudoeste 20 Sudoeste 0 -- -- 45
2018-04-17 13:00:00 14.5 12 Sur 22 Sudoeste 0 -- -- 47
2018-04-17 12:00:00 12.8 14 Sur 21 Sur 0 -- -- 63
2018-04-17 11:00:00 10.5 10 Sur 15 Sudoeste 0 -- -- 70
2018-04-17 10:00:00 8.5 2 Norte 5 Nordeste 0 -- -- 79
2018-04-17 09:00:00 4.5 4 Norte 9 Noroeste 0 -- -- 89
2018-04-17 08:00:00 4.1 0 Calma 5 Sudeste 0 -- -- 87
2018-04-17 07:00:00 4.3 2 Sudeste 9 Sur 0 -- -- 86
2018-04-17 06:00:00 5.2 3 Norte 17 Sur 0 -- -- 82
2018-04-17 05:00:00 7.1 15 Sur 23 Sur 0 -- -- 77
2018-04-17 04:00:00 7.6 17 Sur 21 Sur 0 -- -- 75
2018-04-17 03:00:00 8.7 17 Sur 21 Sur 0 -- -- 69
2018-04-17 02:00:00 9 16 Sur 20 Sur 0 -- -- 68
2018-04-17 01:00:00 9.2 14 Sur 19 Sur 0 -- -- 68
2018-04-17 00:00:00 9.5 15 Sur 22 Sur 0 -- -- 67
2018-04-16 23:00:00 10.2 17 Sur 23 Sur 0 -- -- 68
2018-04-16 22:00:00 10.9 17 Sur 23 Sur 0 -- -- 63
2018-04-16 21:00:00 12.4 17 Sur 25 Sur 0 -- -- 58
2018-04-16 20:00:00 13.9 20 Sur 28 Sur 0 -- -- 48
2018-04-16 19:00:00 14.2 17 Sur 25 Sur 0 -- -- 49
2018-04-16 18:00:00 14.2 14 Sur 28 Sudeste 0 -- -- 49
2018-04-16 17:00:00 14 15 Sur 25 Sur 0 -- -- 46
2018-04-16 16:00:00 13.3 16 Sur 26 Sur 0 -- -- 48
2018-04-16 15:00:00 12.6 11 Sur 22 Sur 0 -- -- 50
2018-04-16 14:00:00 11.4 6 Sur 16 Sudoeste 0 -- -- 59
2018-04-16 13:00:00 10.4 8 Sudoeste 18 Sudoeste 0 -- -- 62
2018-04-16 12:00:00 9.7 9 Sudeste 14 Sur 0 -- -- 63
2018-04-16 11:00:00 8.4 5 Sur 12 Oeste 0 -- -- 70
2018-04-16 10:00:00 6.7 8 Oeste 13 Oeste 0 -- -- 77
2018-04-16 09:00:00 5.6 5 Noroeste -- -- -- -- -- 80
2018-04-16 08:00:00 -- -- -- -- -- -- -- -- --
2018-04-16 07:00:00 -- -- -- -- -- -- -- -- --
2018-04-16 06:00:00 -- -- -- -- -- -- -- -- --
2018-04-16 05:00:00 -- -- -- -- -- -- -- -- --
2018-04-16 04:00:00 -- -- -- -- -- -- -- -- --
2018-04-16 03:00:00 -- -- -- -- -- -- -- -- --
2018-04-16 02:00:00 -- -- -- -- -- -- -- -- --
2018-04-16 01:00:00 -- -- -- -- -- -- -- -- --
2018-04-16 00:00:00 -- -- -- -- -- -- -- -- --
2018-04-15 23:00:00 -- -- -- -- -- -- -- -- --
2018-04-15 22:00:00 -- -- -- -- -- -- -- -- --
2018-04-15 21:00:00 -- -- -- -- -- -- -- -- --
2018-04-15 20:00:00 -- -- -- -- -- -- -- -- --
2018-04-15 19:00:00 -- -- -- -- -- -- -- -- --
2018-04-15 18:00:00 -- -- -- -- -- -- -- -- --
2018-04-15 17:00:00 -- -- -- -- -- -- -- -- --
2018-04-15 16:00:00 -- -- -- -- -- -- -- -- --
2018-04-15 15:00:00 -- -- -- -- -- -- -- -- --
2018-04-15 14:00:00 -- -- -- -- -- -- -- -- --
2018-04-15 13:00:00 -- -- -- -- -- -- -- -- --
2018-04-15 12:00:00 -- -- -- -- -- -- -- -- --
2018-04-15 11:00:00 -- -- -- -- -- -- -- -- --
2018-04-15 10:00:00 -- -- -- -- -- -- -- -- --
2018-04-15 09:00:00 -- -- -- -- -- -- -- -- --
2018-04-15 08:00:00 -- -- -- -- -- -- -- -- --
2018-04-15 07:00:00 -- -- -- -- -- -- -- -- --
2018-04-15 06:00:00 -- -- -- -- -- -- -- -- --
2018-04-15 05:00:00 -- -- -- -- -- -- -- -- --
2018-04-15 04:00:00 -- -- -- -- -- -- -- -- --
2018-04-15 03:00:00 -- -- -- -- -- -- -- -- --
2018-04-15 02:00:00 -- -- -- -- -- -- -- -- --
2018-04-15 01:00:00 -- -- -- -- -- -- -- -- --
2018-04-15 00:00:00 -- -- -- -- -- -- -- -- --
2018-04-14 23:00:00 -- -- -- -- -- -- -- -- --
2018-04-14 22:00:00 -- -- -- -- -- -- -- -- --
2018-04-14 21:00:00 -- -- -- -- -- -- -- -- --
2018-04-14 20:00:00 -- -- -- -- -- -- -- -- --
2018-04-14 19:00:00 -- -- -- -- -- -- -- -- --
2018-04-14 18:00:00 -- -- -- -- -- -- -- -- --
2018-04-14 17:00:00 -- -- -- -- -- -- -- -- --
2018-04-14 16:00:00 -- -- -- -- -- -- -- -- --
2018-04-14 15:00:00 -- -- -- -- -- -- -- -- --
2018-04-14 14:00:00 -- -- -- -- -- -- -- -- --
2018-04-14 13:00:00 -- -- -- -- -- -- -- -- --
2018-04-14 12:00:00 -- -- -- -- -- -- -- -- --
2018-04-14 11:00:00 -- -- -- -- -- -- -- -- --
2018-04-14 10:00:00 -- -- -- -- -- -- -- -- --
2018-04-14 09:00:00 -- -- -- -- -- -- -- -- --
2018-04-14 08:00:00 -- -- -- -- -- -- -- -- --
2018-04-14 07:00:00 -- -- -- -- -- -- -- -- --
2018-04-14 06:00:00 -- -- -- -- -- -- -- -- --
2018-04-14 05:00:00 -- -- -- -- -- -- -- -- --
2018-04-14 04:00:00 -- -- -- -- -- -- -- -- --
2018-04-14 03:00:00 -- -- -- -- -- -- -- -- --
2018-04-14 02:00:00 -- -- -- -- -- -- -- -- --
2018-04-14 01:00:00 -- -- -- -- -- -- -- -- --
2018-04-14 00:00:00 -- -- -- -- -- -- -- -- --
2018-04-13 23:00:00 -- -- -- -- -- -- -- -- --
2018-04-13 22:00:00 -- -- -- -- -- -- -- -- --
2018-04-13 21:00:00 -- -- -- -- -- -- -- -- --
2018-04-13 20:00:00 -- -- -- -- -- -- -- -- --
2018-04-13 19:00:00 -- -- -- -- -- -- -- -- --
2018-04-13 18:00:00 -- -- -- -- -- -- -- -- --
2018-04-13 17:00:00 9.8 11 Norte 17 Norte 0.6 -- -- 76
2018-04-13 16:00:00 10 14 Noroeste 20 Norte 0.2 -- -- 78
2018-04-13 15:00:00 11 8 Oeste 17 Sudoeste 0 -- -- 68
2018-04-13 14:00:00 11 8 Sur 14 Sudoeste 0 -- -- 71
2018-04-13 13:00:00 9.9 5 Sur 21 Oeste 0 -- -- 74
2018-04-13 12:00:00 7.7 6 Oeste 10 Oeste 0 -- -- 83
2018-04-13 11:00:00 7 3 Oeste 8 Sudoeste 0 -- -- 88
2018-04-13 10:00:00 6 0 Calma -- -- 0 -- -- 93
2018-04-13 09:00:00 5.5 0 Calma 4 Sur 0 -- -- 94
2018-04-13 08:00:00 5.2 3 Noroeste 5 Oeste 0 -- -- 94
2018-04-13 07:00:00 5.1 0 Calma -- -- 0 -- -- 93
2018-04-13 06:00:00 5 0 Calma -- -- 0 -- -- 93
2018-04-13 05:00:00 5 0 Calma 0 Calma 0 -- -- 94
2018-04-13 04:00:00 5.1 0 Calma -- -- 0 -- -- 92
2018-04-13 03:00:00 5.2 0 Calma 4 Sur 0 -- -- 92
2018-04-13 02:00:00 5.1 0 Calma 3 Nordeste 0.2 -- -- 93
2018-04-13 01:00:00 5.2 2 Nordeste 6 Oeste 0.8 -- -- 93
2018-04-13 00:00:00 5.3 4 Sudoeste 13 Sudoeste 0.8 -- -- 93
2018-04-12 23:00:00 5.8 12 Sudoeste 15 Oeste 0.2 -- -- 89
2018-04-12 22:00:00 6.1 7 Sudoeste 14 Sudoeste 0 -- -- 87
2018-04-12 21:00:00 6.4 11 Sudoeste 22 Sudoeste 0 -- -- 90
2018-04-12 20:00:00 7.5 14 Sudoeste 27 Sur 0 -- -- 82
2018-04-12 19:00:00 8.3 11 Sur 26 Sur 0.2 -- -- 79
2018-04-12 18:00:00 9 16 Sudeste 25 Sur 0 -- -- 67
2018-04-12 17:00:00 9.3 15 Sudeste 29 Sur 0 -- -- 71
2018-04-12 16:00:00 9.4 16 Sur 27 Sudoeste 0 -- -- 70
2018-04-12 15:00:00 9.8 17 Sudoeste 28 Sur 0 -- -- 69
2018-04-12 14:00:00 8.2 9 Sur 22 Sur 0 -- -- 79
2018-04-12 13:00:00 7.6 13 Sur 20 Sur 0 -- -- 79
2018-04-12 12:00:00 6.1 11 Sur 21 Sudoeste 0 -- -- 86
2018-04-12 11:00:00 5.3 14 Sudoeste 21 Sudoeste 0 -- -- 87
2018-04-12 10:00:00 4.7 12 Sur 19 Sur 0 -- -- 87
2018-04-12 09:00:00 3.1 13 Sur 17 Sur 0 -- -- 91
2018-04-12 08:00:00 2.1 12 Sur 15 Sur 0 -- -- 92
2018-04-12 07:00:00 2.3 9 Sur 12 Sur 0 -- -- 91
2018-04-12 06:00:00 2.8 8 Sur 10 Sur 0 -- -- 89
2018-04-12 05:00:00 3.7 3 Oeste 14 Noroeste 0 -- -- 88
2018-04-12 04:00:00 3.7 10 Noroeste 17 Noroeste 0 -- -- 88
2018-04-12 03:00:00 4 10 Noroeste 18 Noroeste 0 -- -- 87
2018-04-12 02:00:00 4.3 11 Noroeste 25 Noroeste 0 -- -- 86
2018-04-12 01:00:00 4.9 17 Noroeste 29 Noroeste 0 -- -- 84
2018-04-12 00:00:00 5.4 17 Noroeste 23 Noroeste 0 -- -- 81
2018-04-11 23:00:00 6.2 16 Noroeste 27 Noroeste 0 -- -- 78
2018-04-11 22:00:00 7.1 21 Noroeste 34 Noroeste 0 -- -- 74
2018-04-11 21:00:00 8.4 26 Noroeste 42 Noroeste 0 -- -- 68
2018-04-11 20:00:00 9.7 24 Noroeste 45 Oeste 0 -- -- 63
2018-04-11 19:00:00 10.1 32 Noroeste 46 Noroeste 0 -- -- 61
2018-04-11 18:00:00 11 26 Noroeste 40 Noroeste 0 -- -- 50
2018-04-11 17:00:00 11 26 Noroeste 42 Noroeste 0 -- -- 49
2018-04-11 16:00:00 11.4 28 Noroeste 40 Norte 0 -- -- 52
2018-04-11 15:00:00 10.9 24 Norte 43 Noroeste 0 -- -- 52
2018-04-11 14:00:00 9.5 27 Noroeste 44 Noroeste 0 -- -- 53
2018-04-11 13:00:00 8.5 30 Noroeste 45 Noroeste 0 -- -- 61
2018-04-11 12:00:00 6.9 31 Noroeste 44 Noroeste 0 -- -- 67
2018-04-11 11:00:00 5.4 30 Noroeste 45 Noroeste 0 -- -- 70
2018-04-11 10:00:00 3.6 27 Noroeste 41 Noroeste 0 -- -- 75
2018-04-11 09:00:00 1.7 21 Noroeste -- -- -- -- -- 81
2018-04-11 08:00:00 -- -- -- -- -- -- -- -- --
2018-04-11 07:00:00 -- -- -- -- -- -- -- -- --
2018-04-11 06:00:00 -- -- -- -- -- -- -- -- --
2018-04-11 05:00:00 -- -- -- -- -- -- -- -- --
2018-04-11 04:00:00 -- -- -- -- -- -- -- -- --
2018-04-11 03:00:00 -- -- -- -- -- -- -- -- --
2018-04-11 02:00:00 -- -- -- -- -- -- -- -- --
2018-04-11 01:00:00 -- -- -- -- -- -- -- -- --
2018-04-11 00:00:00 -- -- -- -- -- -- -- -- --
2018-04-10 23:00:00 -- -- -- -- -- -- -- -- --
2018-04-10 22:00:00 -- -- -- -- -- -- -- -- --
2018-04-10 21:00:00 -- -- -- -- -- -- -- -- --
2018-04-10 20:00:00 4.3 8 Noroeste 12 Noroeste 0 -- -- 84
2018-04-10 19:00:00 4.6 6 Sur 21 Sudeste 0 -- -- 83
2018-04-10 18:00:00 4.5 18 Sudeste -- -- -- -- -- 82
2018-04-10 17:00:00 -- -- -- -- -- -- -- -- --
2018-04-10 16:00:00 -- -- -- -- -- -- -- -- --
2018-04-10 15:00:00 -- -- -- -- -- -- -- -- --
2018-04-10 14:00:00 7.9 20 Sudoeste 32 Sudoeste 0 -- -- 65
2018-04-10 13:00:00 7.5 13 Oeste 25 Oeste 0 -- -- 67
2018-04-10 12:00:00 6.3 15 Oeste 34 Oeste 0 -- -- 70
2018-04-10 11:00:00 5.3 17 Oeste 28 Oeste 0 -- -- 82
2018-04-10 10:00:00 3.5 13 Sudoeste 34 Oeste 0.8 -- -- 91
2018-04-10 09:00:00 3.5 13 Sudoeste -- -- -- -- -- 92
2018-04-10 08:00:00 -- -- -- -- -- -- -- -- --
2018-04-10 07:00:00 -- -- -- -- -- -- -- -- --
2018-04-10 06:00:00 -- -- -- -- -- -- -- -- --
2018-04-10 05:00:00 -- -- -- -- -- -- -- -- --
2018-04-10 04:00:00 -- -- -- -- -- -- -- -- --
2018-04-10 03:00:00 -- -- -- -- -- -- -- -- --
2018-04-10 02:00:00 -- -- -- -- -- -- -- -- --
2018-04-10 01:00:00 -- -- -- -- -- -- -- -- --
2018-04-10 00:00:00 -- -- -- -- -- -- -- -- --
2018-04-09 23:00:00 -- -- -- -- -- -- -- -- --
2018-04-09 22:00:00 -- -- -- -- -- -- -- -- --
2018-04-09 21:00:00 -- -- -- -- -- -- -- -- --
2018-04-09 20:00:00 -- -- -- -- -- -- -- -- --
2018-04-09 19:00:00 -- -- -- -- -- -- -- -- --
2018-04-09 18:00:00 -- -- -- -- -- -- -- -- --
2018-04-09 17:00:00 -- -- -- -- -- -- -- -- --
2018-04-09 16:00:00 -- -- -- -- -- -- -- -- --
2018-04-09 15:00:00 -- -- -- -- -- -- -- -- --
2018-04-09 14:00:00 -- -- -- -- -- -- -- -- --
2018-04-09 13:00:00 -- -- -- -- -- -- -- -- --
2018-04-09 12:00:00 -- -- -- -- -- -- -- -- --
2018-04-09 11:00:00 -- -- -- -- -- -- -- -- --
2018-04-09 10:00:00 -- -- -- -- -- -- -- -- --
2018-04-09 09:00:00 -- -- -- -- -- -- -- -- --
2018-04-09 08:00:00 -- -- -- -- -- -- -- -- --
2018-04-09 07:00:00 -- -- -- -- -- -- -- -- --
2018-04-09 06:00:00 -- -- -- -- -- -- -- -- --
2018-04-09 05:00:00 -- -- -- -- -- -- -- -- --
2018-04-09 04:00:00 -- -- -- -- -- -- -- -- --
2018-04-09 03:00:00 -- -- -- -- -- -- -- -- --
2018-04-09 02:00:00 -- -- -- -- -- -- -- -- --
2018-04-09 01:00:00 -- -- -- -- -- -- -- -- --
2018-04-09 00:00:00 -- -- -- -- -- -- -- -- --
2018-04-08 23:00:00 -- -- -- -- -- -- -- -- --
2018-04-08 22:00:00 -- -- -- -- -- -- -- -- --
2018-04-08 21:00:00 -- -- -- -- -- -- -- -- --
2018-04-08 20:00:00 -- -- -- -- -- -- -- -- --
2018-04-08 19:00:00 -- -- -- -- -- -- -- -- --
2018-04-08 18:00:00 -- -- -- -- -- -- -- -- --
2018-04-08 17:00:00 -- -- -- -- -- -- -- -- --
2018-04-08 16:00:00 -- -- -- -- -- -- -- -- --
2018-04-08 15:00:00 10.4 21 Oeste 33 Sudoeste 0 -- -- 68
2018-04-08 14:00:00 11.2 20 Sudoeste 33 Sudoeste 0 -- -- 59
2018-04-08 13:00:00 9.9 21 Sudoeste 33 Sudoeste 0 -- -- 63
2018-04-08 12:00:00 9.5 15 Sudoeste 24 Sudoeste 0 -- -- 62
2018-04-08 11:00:00 7.8 13 Sudoeste 19 Sudoeste 0 -- -- 75
2018-04-08 10:00:00 5.8 12 Sudoeste 18 Sudoeste 0 -- -- 85
2018-04-08 09:00:00 3.5 8 Sur 12 Sur 0 -- -- 91
2018-04-08 08:00:00 2.9 9 Sudoeste 12 Sudoeste 0 -- -- 91
2018-04-08 07:00:00 2.5 6 Sur 11 Sudoeste 0 -- -- 91
2018-04-08 06:00:00 2.5 9 Sudoeste 13 Sudoeste 0 -- -- 92
2018-04-08 05:00:00 3 4 Norte 8 Nordeste 0 -- -- 89
2018-04-08 04:00:00 3 0 Calma -- -- 0 -- -- 91
2018-04-08 03:00:00 3.8 0 Calma -- -- 0 -- -- 90
2018-04-08 02:00:00 4.3 0 Calma 10 Noroeste 0 -- -- 89
2018-04-08 01:00:00 5.4 4 Noroeste 8 Sudoeste 0 -- -- 85
2018-04-08 00:00:00 5.8 5 Oeste 12 Oeste 0 -- -- 84
2018-04-07 23:00:00 7.3 5 Noroeste 33 Sudoeste 0 -- -- 77
2018-04-07 22:00:00 7.8 27 Sur 33 Sur 0 -- -- 79
2018-04-07 21:00:00 8.4 20 Sudeste 35 Sur 0 -- -- 73
2018-04-07 20:00:00 11.1 20 Sur 32 Sur 0 -- -- 55
2018-04-07 19:00:00 11.2 20 Sur 31 Sur 0 -- -- 58
2018-04-07 18:00:00 11.1 19 Sudeste 31 Sur 0 -- -- 60
2018-04-07 17:00:00 10.6 17 Sur 28 Sur 0 -- -- 61
2018-04-07 16:00:00 10.2 17 Sur 27 Sur 0 -- -- 62
2018-04-07 15:00:00 9.8 11 Sur 25 Sur 0 -- -- 62
2018-04-07 14:00:00 9.4 12 Sudoeste 25 Sudoeste 0 -- -- 65
2018-04-07 13:00:00 8.4 14 Sudoeste 22 Sudoeste 0 -- -- 70
2018-04-07 12:00:00 7.3 9 Sudoeste 19 Sudoeste 0 -- -- 77
2018-04-07 11:00:00 6.5 11 Sur 17 Sur 0 -- -- 81
2018-04-07 10:00:00 5.7 9 Sur 17 Sur 0 -- -- 84
2018-04-07 09:00:00 5.4 10 Sur 15 Sur 0 -- -- 86
2018-04-07 08:00:00 5.3 9 Sur 15 Sudoeste 0 -- -- 86
2018-04-07 07:00:00 5.5 13 Sur 19 Sudoeste 0 -- -- 85
2018-04-07 06:00:00 5.7 14 Sudoeste 22 Sudoeste 0 -- -- 86
2018-04-07 05:00:00 5.8 16 Sudoeste 22 Sur 0 -- -- 87
2018-04-07 04:00:00 6.1 13 Sudoeste 20 Sudoeste 0 -- -- 87
2018-04-07 03:00:00 6.3 16 Sudoeste 30 Sudoeste 0 -- -- 86
2018-04-07 02:00:00 7.1 20 Sudoeste 31 Sur 0.4 -- -- 90
2018-04-07 01:00:00 7.3 19 Sudoeste 26 Sudoeste 0 -- -- 87
2018-04-07 00:00:00 7.6 18 Sudoeste 39 Sudoeste 0 -- -- 84
2018-04-06 23:00:00 8.5 29 Sudoeste 39 Sudoeste 0 -- -- 73
2018-04-06 22:00:00 9.9 25 Sudoeste 46 Sudoeste 0 -- -- 65
2018-04-06 21:00:00 13.6 28 Sudoeste 41 Sudoeste 0 -- -- 54
2018-04-06 20:00:00 15.2 21 Sudoeste 41 Sudoeste 0 -- -- 50
2018-04-06 19:00:00 16.8 33 Sudoeste 51 Sudoeste 0 -- -- 42
2018-04-06 18:00:00 17.6 31 Sudoeste 54 Sur 0 -- -- 40
2018-04-06 17:00:00 17.9 30 Sudoeste 52 Sur 0 -- -- 41
2018-04-06 16:00:00 17.9 35 Sur 52 Sur 0 -- -- 39
2018-04-06 15:00:00 16.5 27 Sur 50 Sudoeste 0 -- -- 45
2018-04-06 14:00:00 15.6 30 Sudoeste 47 Sur 0 -- -- 50
2018-04-06 13:00:00 14.5 22 Sur 36 Sur 0 -- -- 54
2018-04-06 12:00:00 13.1 18 Sur 28 Sudoeste 0 -- -- 57
2018-04-06 11:00:00 11.9 14 Sur 21 Sur 0 -- -- 60
2018-04-06 10:00:00 9.6 13 Sudeste 17 Sudeste 0 -- -- 71
2018-04-06 09:00:00 7 7 Sudeste 12 Sudeste 0 -- -- 82
2018-04-06 08:00:00 6.4 9 Este 20 Sudeste 0 -- -- 80
2018-04-06 07:00:00 6.5 18 Sudeste 20 Sudeste 0 -- -- 82
2018-04-06 06:00:00 7.6 15 Sudeste 19 Sudeste 0 -- -- 80
2018-04-06 05:00:00 8.3 9 Sur 10 Sur 0 -- -- 80
2018-04-06 04:00:00 7.5 9 Sur 13 Sur 0 -- -- 77
2018-04-06 03:00:00 7 11 Sur 14 Sudoeste 0 -- -- 74
2018-04-06 02:00:00 6.6 4 Sudeste 12 Sudoeste 0 -- -- 73
2018-04-06 01:00:00 7.7 9 Sur 19 Sudeste 0 -- -- 68
2018-04-06 00:00:00 7.8 16 Este 19 Sudeste 0 -- -- 68
2018-04-05 23:00:00 10.3 9 Este 14 Este 0 -- -- 57
2018-04-05 22:00:00 10.6 10 Este 17 Sudeste 0 -- -- 57
2018-04-05 21:00:00 11.1 10 Sudeste 20 Sudeste 0 -- -- 59
2018-04-05 20:00:00 13.9 15 Sur 25 Sur 0 -- -- 48
2018-04-05 19:00:00 13.7 15 Sur 25 Sur 0 -- -- 47
2018-04-05 18:00:00 13.9 17 Sur 25 Sudoeste 0 -- -- 44
2018-04-05 17:00:00 14.1 14 Sur 28 Sur 0 -- -- 48
2018-04-05 16:00:00 12.9 10 Sur 26 Sur 0 -- -- 55
2018-04-05 15:00:00 12 13 Sur 25 Sudoeste 0 -- -- 58
2018-04-05 14:00:00 10.7 14 Sur 27 Sur 0 -- -- 63
2018-04-05 13:00:00 8.9 10 Sur -- -- -- -- -- 77
2018-04-05 12:00:00 -- -- -- -- -- -- -- -- --
2018-04-05 11:00:00 -- -- -- -- -- -- -- -- --
2018-04-05 10:00:00 -- -- -- -- -- -- -- -- --
2018-04-05 09:00:00 -- -- -- -- -- -- -- -- --
2018-04-05 08:00:00 -- -- -- -- -- -- -- -- --
2018-04-05 07:00:00 -- -- -- -- -- -- -- -- --
2018-04-05 06:00:00 -- -- -- -- -- -- -- -- --
2018-04-05 05:00:00 -- -- -- -- -- -- -- -- --
2018-04-05 04:00:00 -- -- -- -- -- -- -- -- --
2018-04-05 03:00:00 -- -- -- -- -- -- -- -- --
2018-04-05 02:00:00 -- -- -- -- -- -- -- -- --
2018-04-05 01:00:00 -- -- -- -- -- -- -- -- --
2018-04-05 00:00:00 -- -- -- -- -- -- -- -- --
2018-04-04 23:00:00 -- -- -- -- -- -- -- -- --
2018-04-04 22:00:00 -- -- -- -- -- -- -- -- --
2018-04-04 21:00:00 -- -- -- -- -- -- -- -- --
2018-04-04 20:00:00 -- -- -- -- -- -- -- -- --
2018-04-04 19:00:00 -- -- -- -- -- -- -- -- --
2018-04-04 18:00:00 -- -- -- -- -- -- -- -- --
2018-04-04 17:00:00 -- -- -- -- -- -- -- -- --
2018-04-04 16:00:00 -- -- -- -- -- -- -- -- --
2018-04-04 15:00:00 -- -- -- -- -- -- -- -- --
2018-04-04 14:00:00 -- -- -- -- -- -- -- -- --
2018-04-04 13:00:00 -- -- -- -- -- -- -- -- --
2018-04-04 12:00:00 -- -- -- -- -- -- -- -- --
2018-04-04 11:00:00 -- -- -- -- -- -- -- -- --
2018-04-04 10:00:00 -- -- -- -- -- -- -- -- --
2018-04-04 09:00:00 -- -- -- -- -- -- -- -- --
2018-04-04 08:00:00 -- -- -- -- -- -- -- -- --
2018-04-04 07:00:00 -- -- -- -- -- -- -- -- --
2018-04-04 06:00:00 -- -- -- -- -- -- -- -- --
2018-04-04 05:00:00 -- -- -- -- -- -- -- -- --
2018-04-04 04:00:00 -- -- -- -- -- -- -- -- --
2018-04-04 03:00:00 -- -- -- -- -- -- -- -- --
2018-04-04 02:00:00 -- -- -- -- -- -- -- -- --
2018-04-04 01:00:00 -- -- -- -- -- -- -- -- --
2018-04-04 00:00:00 -- -- -- -- -- -- -- -- --
2018-04-03 23:00:00 -- -- -- -- -- -- -- -- --
2018-04-03 22:00:00 -- -- -- -- -- -- -- -- --
2018-04-03 21:00:00 -- -- -- -- -- -- -- -- --
2018-04-03 20:00:00 -- -- -- -- -- -- -- -- --
2018-04-03 19:00:00 -- -- -- -- -- -- -- -- --
2018-04-03 18:00:00 -- -- -- -- -- -- -- -- --
2018-04-03 17:00:00 -- -- -- -- -- -- -- -- --
2018-04-03 16:00:00 -- -- -- -- -- -- -- -- --
2018-04-03 15:00:00 -- -- -- -- -- -- -- -- --
2018-04-03 14:00:00 9 33 Sudoeste 52 Sudoeste 0.6 -- -- 81
2018-04-03 13:00:00 9.4 33 Sudoeste 51 Sur 0 -- -- 71
2018-04-03 12:00:00 9 36 Sudoeste 55 Sudoeste 0 -- -- 76
2018-04-03 11:00:00 7 27 Sudoeste 37 Sudoeste 0 -- -- 84
2018-04-03 10:00:00 6.3 15 Sudoeste 41 Sudoeste 0 -- -- 86
2018-04-03 09:00:00 6.7 36 Oeste 57 Sudoeste 1 -- -- 86
2018-04-03 08:00:00 7.4 28 Sudoeste 42 Sur 2 -- -- 92
2018-04-03 07:00:00 7.7 28 Sudoeste 48 Sur 0.6 -- -- 88
2018-04-03 06:00:00 8.1 32 Sudoeste 51 Sudoeste 0.2 -- -- 87
2018-04-03 05:00:00 8.4 30 Sur 49 Sur 0 -- -- 84
2018-04-03 04:00:00 8.5 30 Sur 47 Sudoeste 0 -- -- 84
2018-04-03 03:00:00 8.3 26 Sudoeste 41 Sur 0 -- -- 84
2018-04-03 02:00:00 8.7 25 Sudoeste 40 Sudoeste 0 -- -- 82
2018-04-03 01:00:00 9 24 Sudoeste 39 Sudoeste 0 -- -- 80
2018-04-03 00:00:00 9.2 23 Sudoeste 38 Sur 0 -- -- 81
2018-04-02 23:00:00 9.1 20 Sur 37 Sur 0 -- -- 87
2018-04-02 22:00:00 9.4 22 Sudoeste 37 Sudoeste 0 -- -- 84
2018-04-02 21:00:00 10.2 21 Sudoeste 39 Sudoeste 0 -- -- 82
2018-04-02 20:00:00 10.7 30 Sudoeste 45 Sudoeste 0 -- -- 78
2018-04-02 19:00:00 11.6 35 Sudoeste 53 Sudoeste 0 -- -- 73
2018-04-02 18:00:00 10.6 27 Sudoeste 51 Sudoeste 0 -- -- 84
2018-04-02 17:00:00 12.2 33 Sudoeste 47 Sudoeste 0 -- -- 68
2018-04-02 16:00:00 12.2 30 Sudoeste 42 Sudoeste 0 -- -- 67
2018-04-02 15:00:00 11.9 29 Sudoeste 55 Sudoeste 0 -- -- 67
2018-04-02 14:00:00 12.7 34 Sudoeste 56 Sudoeste 0 -- -- 57
2018-04-02 13:00:00 13.2 36 Sudoeste 58 Sur 0.2 -- -- 56
2018-04-02 12:00:00 11.7 27 Sudoeste 41 Sudoeste 0 -- -- 66
2018-04-02 11:00:00 10 22 Sur 29 Sur 0 -- -- 75
2018-04-02 10:00:00 9.1 17 Sur 23 Sur 0 -- -- 78
2018-04-02 09:00:00 9.1 15 Sur 25 Sur 0 -- -- 74
2018-04-02 08:00:00 8.6 17 Sur 22 Sur 0 -- -- 76
2018-04-02 07:00:00 9.3 15 Sur 21 Sur 0 -- -- 73
2018-04-02 06:00:00 8.7 13 Sudeste 19 Sur 0 -- -- 76
2018-04-02 05:00:00 9.3 17 Sur 19 Sur 0 -- -- 73
2018-04-02 04:00:00 9.3 10 Sur 15 Sur 0 -- -- 74
2018-04-02 03:00:00 9.8 13 Sur 19 Sur 0 -- -- 70
2018-04-02 02:00:00 10.3 14 Sur 22 Sur 0 -- -- 68
2018-04-02 01:00:00 11.1 18 Sur 24 Sudoeste 0 -- -- 64
2018-04-02 00:00:00 11 13 Sudoeste 22 Sur 0 -- -- 66
2018-04-01 23:00:00 11.6 16 Sur 21 Sur 0 -- -- 65
2018-04-01 22:00:00 11.5 5 Sudoeste 12 Sudeste 0 -- -- 64
2018-04-01 21:00:00 12.8 7 Sur 19 Sudoeste 0 -- -- 60
2018-04-01 20:00:00 14.8 14 Sudoeste 30 Sur 0 -- -- 50
2018-04-01 19:00:00 15.8 18 Sur 39 Sur 0 -- -- 48
2018-04-01 18:00:00 15.4 25 Sur 40 Sur 0 -- -- 46
2018-04-01 17:00:00 15.1 17 Sur 28 Sur 0 -- -- 49
2018-04-01 16:00:00 13.8 18 Sur 28 Sudeste 0 -- -- 51
2018-04-01 15:00:00 12.6 10 Sur 21 Sur 0 -- -- 53
2018-04-01 14:00:00 10.8 11 Sur 20 Sur 0 -- -- 56
2018-04-01 13:00:00 9.3 11 Sur 19 Sur 0 -- -- 60
2018-04-01 12:00:00 8.4 13 Sudoeste 20 Sudoeste 0 -- -- 67
2018-04-01 11:00:00 8 12 Sur 18 Sudoeste 0 -- -- 68
2018-04-01 10:00:00 6.5 11 Sur 14 Sur 0 -- -- 75
2018-04-01 09:00:00 4.3 8 Sudeste 13 Sudeste 0 -- -- 82
2018-04-01 08:00:00 3 8 Sur 12 Sur 0 -- -- 75
2018-04-01 07:00:00 4 11 Sur 13 Sur 0 -- -- 74
2018-04-01 06:00:00 5.2 8 Sudoeste 17 Sudoeste 0 -- -- 70
2018-04-01 05:00:00 5.2 7 Sur 10 Sur 0 -- -- 76
2018-04-01 04:00:00 5.4 7 Sudoeste 16 Oeste 0 -- -- 70
2018-04-01 03:00:00 5.9 12 Sudoeste 21 Sudoeste 0 -- -- 69
2018-04-01 02:00:00 6.3 8 Sudoeste 20 Sudoeste 0 -- -- 67
2018-04-01 01:00:00 6.6 12 Sudoeste 22 Sudoeste 0 -- -- 63
2018-04-01 00:00:00 6.8 15 Sudoeste 21 Sudoeste 0 -- -- 60
2018-03-31 23:00:00 7.5 12 Sudoeste 18 Sudoeste 0 -- -- 55
2018-03-31 22:00:00 8 13 Oeste 24 Oeste 0 -- -- 51
2018-03-31 21:00:00 8.7 17 Oeste 28 Sudoeste 0 -- -- 43
2018-03-31 20:00:00 9.1 17 Oeste 33 Oeste 0 -- -- 43
2018-03-31 19:00:00 9.3 22 Noroeste 41 Noroeste 0 -- -- 43
2018-03-31 18:00:00 10.7 28 Oeste 44 Oeste 0 -- -- 39
2018-03-31 17:00:00 11 31 Noroeste 46 Oeste 0 -- -- 40
2018-03-31 16:00:00 9.7 33 Oeste 52 Oeste 0 -- -- 43
2018-03-31 15:00:00 9.5 31 Noroeste 46 Oeste 0 -- -- 48
2018-03-31 14:00:00 7.9 28 Noroeste 51 Noroeste 0 -- -- 54
2018-03-31 13:00:00 6.9 28 Oeste 42 Oeste 0 -- -- 55
2018-03-31 12:00:00 5.9 32 Oeste 44 Oeste 0 -- -- 56
2018-03-31 11:00:00 4.8 26 Noroeste 36 Noroeste 0 -- -- 64
2018-03-31 10:00:00 3 18 Oeste 27 Noroeste 0 -- -- 73
2018-03-31 09:00:00 1.7 14 Oeste 23 Oeste 0.2 -- -- 80
2018-03-31 08:00:00 0.3 6 Sur 13 Sudoeste 0 -- -- 87
2018-03-31 07:00:00 1 12 Sudoeste 22 Sudoeste 0 -- -- 86
2018-03-31 06:00:00 1.3 8 Sudoeste 32 Oeste 0 -- -- 84
2018-03-31 05:00:00 1.8 19 Oeste 27 Oeste 0 -- -- 83
2018-03-31 04:00:00 1.1 14 Sudoeste 28 Oeste 0 -- -- 87
2018-03-31 03:00:00 1 20 Oeste 29 Sudoeste 0 -- -- 88
2018-03-31 02:00:00 1 18 Sudoeste 36 Sudoeste 0 -- -- 89
2018-03-31 01:00:00 1.2 27 Sudoeste 39 Sudoeste 0 -- -- 87
2018-03-31 00:00:00 0.8 22 Sudoeste 29 Sudoeste 0 -- -- 90
2018-03-30 23:00:00 0.9 18 Sudoeste 30 Sudoeste 0 -- -- 88
2018-03-30 22:00:00 1.6 19 Sudoeste 39 Oeste 0 -- -- 90
2018-03-30 21:00:00 1.9 31 Oeste 53 Oeste 0.4 -- -- 89
2018-03-30 20:00:00 3.2 36 Sudoeste 68 Sudoeste 0 -- -- 80
2018-03-30 19:00:00 3.8 40 Sudoeste 62 Sudoeste 0 -- -- 78
2018-03-30 18:00:00 4.4 39 Sudoeste 58 Sudoeste 0 -- -- 74
2018-03-30 17:00:00 4.8 46 Sudoeste 62 Sudoeste 0 -- -- 73
2018-03-30 16:00:00 4.2 35 Sudoeste 57 Sudoeste 0 -- -- 77
2018-03-30 15:00:00 6.2 37 Sudoeste 55 Sudoeste 0 -- -- 54
2018-03-30 14:00:00 5.9 31 Sudoeste 57 Sudoeste 0 -- -- 57
2018-03-30 13:00:00 5.5 37 Sudoeste 56 Sudoeste 0 -- -- 60
2018-03-30 12:00:00 4.3 36 Sudoeste 52 Sudoeste 0 -- -- 66
2018-03-30 11:00:00 3 28 Sudoeste 40 Sudoeste 0 -- -- 73
2018-03-30 10:00:00 1.4 22 Sudoeste 31 Sudoeste 0 -- -- 82
2018-03-30 09:00:00 0 17 Sudoeste 24 Oeste 0 -- -- 84
2018-03-30 08:00:00 -0.3 19 Sudoeste 29 Sudoeste 0 -- -- 86
2018-03-30 07:00:00 -0.1 23 Sudoeste 31 Sudoeste 0 -- -- 88
2018-03-30 06:00:00 0.5 13 Sudoeste 31 Sudoeste 0 -- -- 85
2018-03-30 05:00:00 1.1 18 Sudoeste 30 Sudoeste 0 -- -- 86
2018-03-30 04:00:00 1.8 21 Sudoeste 41 Sudoeste 0 -- -- 86
2018-03-30 03:00:00 2.7 27 Oeste 43 Sudoeste 0 -- -- 84
2018-03-30 02:00:00 3.1 23 Sudoeste 43 Sudoeste 0 -- -- 87
2018-03-30 01:00:00 3.3 26 Sudoeste 50 Sudoeste 0 -- -- 89
2018-03-30 00:00:00 3.9 33 Sudoeste 54 Sudoeste 0.6 -- -- 89
2018-03-29 23:00:00 5.3 33 Sudoeste 48 Sudoeste 0 -- -- 83
2018-03-29 22:00:00 4.7 16 Sudoeste 39 Oeste 0 -- -- 84
2018-03-29 21:00:00 6.2 35 Sudoeste 55 Sudoeste 0 -- -- 77
2018-03-29 20:00:00 7.4 31 Sudoeste 49 Sudoeste 0 -- -- 64
2018-03-29 19:00:00 8.2 37 Sudoeste 50 Sudoeste 0 -- -- 60
2018-03-29 18:00:00 8.7 38 Sudoeste 58 Sudoeste 0 -- -- 58
2018-03-29 17:00:00 10 35 Sudoeste 55 Sudoeste 0 -- -- 49
2018-03-29 16:00:00 11.6 30 Sudoeste 53 Sudoeste 0 -- -- 44
2018-03-29 15:00:00 10.2 32 Sudoeste 48 Sudoeste 0 -- -- 47
2018-03-29 14:00:00 9.8 24 Sudoeste 36 Sudoeste 0 -- -- 45
2018-03-29 13:00:00 7.8 17 Sudoeste 28 Sudoeste 0 -- -- 50
2018-03-29 12:00:00 6.5 18 Sudoeste 26 Sudoeste 0 -- -- 53
2018-03-29 11:00:00 5.1 15 Oeste 27 Oeste 0 -- -- 57
2018-03-29 10:00:00 3.5 15 Oeste 20 Oeste 0 -- -- 65
2018-03-29 09:00:00 2 10 Noroeste 20 Oeste 0 -- -- 71
2018-03-29 08:00:00 2 15 Noroeste 21 Noroeste 0 -- -- 73
2018-03-29 07:00:00 2.8 9 Oeste 16 Oeste 0 -- -- 79
2018-03-29 06:00:00 3.7 12 Oeste 20 Noroeste 0 -- -- 75
2018-03-29 05:00:00 4.7 9 Noroeste 19 Oeste 0 -- -- 75
2018-03-29 04:00:00 5 6 Noroeste 19 Oeste 0 -- -- 78
2018-03-29 03:00:00 5.4 6 Oeste 14 Oeste 0 -- -- 79
2018-03-29 02:00:00 5.8 12 Noroeste 26 Noroeste 0 -- -- 77
2018-03-29 01:00:00 6.1 17 Noroeste 27 Noroeste 0 -- -- 76
2018-03-29 00:00:00 7.2 14 Oeste 30 Noroeste 0 -- -- 74
2018-03-28 23:00:00 8.1 23 Noroeste 32 Noroeste 0 -- -- 72
2018-03-28 22:00:00 8.9 19 Noroeste 32 Noroeste 0 -- -- 70
2018-03-28 21:00:00 9.9 13 Oeste 28 Oeste 0 -- -- 62
2018-03-28 20:00:00 10.8 22 Oeste 39 Oeste 0 -- -- 58
2018-03-28 19:00:00 10.7 24 Noroeste 40 Noroeste 0 -- -- 67
2018-03-28 18:00:00 11.6 28 Noroeste 42 Noroeste 0 -- -- 61
2018-03-28 17:00:00 12.5 26 Noroeste 37 Noroeste 0 -- -- 56
2018-03-28 16:00:00 13.8 7 Oeste 25 Oeste 0 -- -- 50
2018-03-28 15:00:00 14.2 13 Oeste 30 Noroeste 0 -- -- 50
2018-03-28 14:00:00 13 21 Noroeste 34 Noroeste 0 -- -- 52
2018-03-28 13:00:00 12.3 22 Noroeste 35 Oeste 0 -- -- 54
2018-03-28 12:00:00 11.2 18 Noroeste 28 Oeste 0 -- -- 54
2018-03-28 11:00:00 8.3 17 Noroeste 25 Noroeste 0 -- -- 66
2018-03-28 10:00:00 6.6 4 Norte 9 Norte 0 -- -- 60
2018-03-28 09:00:00 4.8 4 Noroeste 16 Sudoeste 0 -- -- 64
2018-03-28 08:00:00 5.2 10 Sur 14 Sudoeste 0 -- -- 59
2018-03-28 07:00:00 5.7 11 Sur 13 Sur 0 -- -- 59
2018-03-28 06:00:00 5.4 12 Sur 16 Sudoeste 0 -- -- 64
2018-03-28 05:00:00 6.2 10 Sur 12 Sur 0 -- -- 63
2018-03-28 04:00:00 7.7 4 Sudoeste 8 Sur 0 -- -- 58
2018-03-28 03:00:00 8.5 6 Sudoeste 12 Oeste 0 -- -- 57
2018-03-28 02:00:00 10.2 8 Oeste 18 Sudoeste 0 -- -- 51
2018-03-28 01:00:00 11.2 15 Oeste 24 Oeste 0 -- -- 45
2018-03-28 00:00:00 10.8 14 Sudoeste 22 Oeste 0 -- -- 47
2018-03-27 23:00:00 12.2 16 Oeste 26 Oeste 0 -- -- 41
2018-03-27 22:00:00 13.5 16 Oeste 25 Oeste 0 -- -- 40
2018-03-27 21:00:00 14.9 13 Oeste 32 Oeste 0 -- -- 35
2018-03-27 20:00:00 17.1 23 Noroeste 39 Noroeste 0 -- -- 30
2018-03-27 19:00:00 17.8 26 Noroeste 44 Noroeste 0 -- -- 35
2018-03-27 18:00:00 18.2 28 Noroeste 43 Oeste 0 -- -- 41
2018-03-27 17:00:00 17.7 28 Oeste 37 Oeste 0 -- -- 43
2018-03-27 16:00:00 16.6 18 Noroeste 32 Noroeste 0 -- -- 44
2018-03-27 15:00:00 15.1 12 Noroeste 27 Noroeste 0 -- -- 47
2018-03-27 14:00:00 13.8 17 Noroeste 29 Noroeste 0 -- -- 53
2018-03-27 13:00:00 13.2 18 Noroeste 28 Noroeste 0 -- -- 59
2018-03-27 12:00:00 11.2 19 Noroeste 36 Noroeste 0 -- -- 67
2018-03-27 11:00:00 9.6 27 Noroeste 37 Noroeste 0 -- -- 73
2018-03-27 10:00:00 7.4 23 Noroeste 33 Noroeste 0 -- -- 79
2018-03-27 09:00:00 6.1 15 Norte 28 Noroeste 0 -- -- 83
2018-03-27 08:00:00 5.6 17 Norte 28 Noroeste 0 -- -- 86
2018-03-27 07:00:00 5.6 23 Noroeste 30 Norte 0 -- -- 86
2018-03-27 06:00:00 5.2 17 Noroeste 24 Noroeste 0 -- -- 87
2018-03-27 05:00:00 4.9 13 Norte 19 Noroeste 0 -- -- 87
2018-03-27 04:00:00 5.6 6 Noroeste 13 Oeste 0 -- -- 85
2018-03-27 03:00:00 6.2 9 Noroeste 12 Noroeste 0 -- -- 84
2018-03-27 02:00:00 6.7 9 Noroeste 21 Noroeste 0 -- -- 81
2018-03-27 01:00:00 7.3 9 Oeste 22 Oeste 0 -- -- 79
2018-03-27 00:00:00 7.5 10 Oeste 19 Oeste 0 -- -- 78
2018-03-26 23:00:00 7.9 10 Noroeste 22 Noroeste 0 -- -- 74
2018-03-26 22:00:00 8.4 17 Noroeste 29 Noroeste 0 -- -- 71
2018-03-26 21:00:00 9 15 Noroeste 34 Noroeste 0 -- -- 66
2018-03-26 20:00:00 9.9 25 Noroeste 35 Noroeste 0 -- -- 61
2018-03-26 19:00:00 11.7 26 Noroeste 35 Noroeste 0 -- -- 48
2018-03-26 18:00:00 12.8 16 Noroeste 34 Noroeste 0 -- -- 41
2018-03-26 17:00:00 12.4 19 Noroeste 30 Oeste 0 -- -- 39
2018-03-26 16:00:00 12.1 18 Noroeste 32 Oeste 0 -- -- 39
2018-03-26 15:00:00 10.6 17 Noroeste 27 Noroeste 0 -- -- 43
2018-03-26 14:00:00 9.5 14 Noroeste 28 Noroeste 0 -- -- 42
2018-03-26 13:00:00 8.4 14 Noroeste 26 Norte 0 -- -- 47
2018-03-26 12:00:00 7.2 16 Norte 26 Norte 0 -- -- 45
2018-03-26 11:00:00 5.8 20 Norte 26 Norte 0 -- -- 53
2018-03-26 10:00:00 2.8 4 Este 11 Nordeste 0 -- -- 62
2018-03-26 09:00:00 0.4 11 Norte 22 Norte 0 -- -- 70
2018-03-26 08:00:00 -0.4 13 Norte 18 Norte 0 -- -- 75
2018-03-26 07:00:00 0.2 9 Norte 23 Noroeste 0 -- -- 74
2018-03-26 06:00:00 1.4 21 Noroeste 29 Noroeste 0 -- -- 69
2018-03-26 05:00:00 2.1 18 Noroeste 25 Noroeste 0 -- -- 68
2018-03-26 04:00:00 2.1 14 Noroeste 22 Noroeste 0 -- -- 69
2018-03-26 03:00:00 2.3 4 Oeste 13 Oeste 0 -- -- 67
2018-03-26 02:00:00 2.5 12 Sur 24 Noroeste 0 -- -- 66
2018-03-26 01:00:00 3.2 17 Noroeste 29 Noroeste 0 -- -- 62
2018-03-26 00:00:00 4 18 Noroeste 31 Oeste 0 -- -- 60